createdAt,value
2019-01-08T00:00:19.741Z,5.25
2019-01-08T00:01:26.163Z,5.27
2019-01-08T00:02:32.558Z,5.13
2019-01-08T00:03:38.946Z,5.19
2019-01-08T00:04:45.279Z,5.16
2019-01-08T00:05:51.761Z,5.16
2019-01-08T00:06:58.160Z,5.22
2019-01-08T00:08:04.597Z,5.23
2019-01-08T00:09:10.931Z,5.30
2019-01-08T00:10:17.323Z,5.21
2019-01-08T00:11:23.695Z,5.20
2019-01-08T00:12:30.152Z,5.18
2019-01-08T00:13:36.524Z,5.21
2019-01-08T00:14:42.885Z,5.27
2019-01-08T00:15:49.297Z,5.32
2019-01-08T00:16:55.671Z,5.25
2019-01-08T00:18:02.037Z,5.27
2019-01-08T00:19:08.389Z,5.21
2019-01-08T00:20:14.766Z,5.28
2019-01-08T00:21:21.138Z,5.27
2019-01-08T00:22:30.958Z,5.16
2019-01-08T00:23:37.756Z,5.21
2019-01-08T00:24:44.096Z,5.16
2019-01-08T00:25:50.482Z,5.20
2019-01-08T00:26:56.814Z,5.28
2019-01-08T00:28:03.184Z,5.24
2019-01-08T00:29:09.530Z,5.26
2019-01-08T00:30:15.864Z,5.30
2019-01-08T00:31:22.205Z,5.35
2019-01-08T00:32:28.519Z,5.24
2019-01-08T00:33:34.846Z,5.26
2019-01-08T00:34:41.160Z,5.37
2019-01-08T00:35:47.520Z,5.33
2019-01-08T00:36:53.861Z,5.23
2019-01-08T00:38:00.243Z,5.31
2019-01-08T00:39:05.864Z,5.30
2019-01-08T00:40:12.231Z,5.32
2019-01-08T00:41:18.583Z,5.23
2019-01-08T00:42:24.939Z,5.35
2019-01-08T00:43:32.237Z,5.38
2019-01-08T00:44:39.441Z,5.41
2019-01-08T00:45:45.821Z,5.45
2019-01-08T00:46:52.174Z,5.45
2019-01-08T00:47:58.520Z,5.48
2019-01-08T00:49:06.309Z,5.38
2019-01-08T00:50:13.721Z,5.41
2019-01-08T00:51:20.091Z,5.43
2019-01-08T00:52:26.390Z,5.43
2019-01-08T00:53:32.694Z,5.46
2019-01-08T00:54:39.038Z,5.46
2019-01-08T00:55:45.415Z,5.46
2019-01-08T00:56:52.797Z,5.47
2019-01-08T00:57:59.109Z,5.50
2019-01-08T00:59:06.377Z,5.53
2019-01-08T01:00:12.457Z,5.56
2019-01-08T01:01:18.795Z,5.56
2019-01-08T01:02:25.099Z,5.56
2019-01-08T01:03:31.454Z,5.46
2019-01-08T01:04:37.791Z,5.44
2019-01-08T01:05:44.170Z,5.54
2019-01-08T01:06:50.564Z,5.58
2019-01-08T01:07:56.946Z,5.50
2019-01-08T01:09:03.139Z,5.55
2019-01-08T01:10:08.631Z,5.47
2019-01-08T01:11:14.984Z,5.52
2019-01-08T01:12:21.307Z,5.53
2019-01-08T01:13:27.640Z,5.54
2019-01-08T01:14:33.961Z,5.61
2019-01-08T01:15:40.252Z,5.65
2019-01-08T01:16:46.605Z,5.62
2019-01-08T01:17:52.916Z,5.55
2019-01-08T01:18:59.282Z,5.62
2019-01-08T01:20:04.907Z,5.66
2019-01-08T01:21:11.212Z,5.55
2019-01-08T01:22:17.558Z,5.68
2019-01-08T01:23:23.941Z,5.68
2019-01-08T01:24:30.285Z,5.60
2019-01-08T01:25:36.652Z,5.65
2019-01-08T01:26:43.041Z,5.71
2019-01-08T01:27:49.388Z,5.73
2019-01-08T01:29:00.026Z,5.75
2019-01-08T01:30:02.065Z,5.85
2019-01-08T01:31:08.455Z,5.79
2019-01-08T01:32:14.785Z,5.79
2019-01-08T01:33:21.635Z,5.81
2019-01-08T01:34:27.993Z,5.84
2019-01-08T01:35:34.303Z,5.71
2019-01-08T01:36:40.667Z,5.71
2019-01-08T01:37:47.884Z,5.71
2019-01-08T01:38:54.264Z,5.75
2019-01-08T01:40:00.596Z,5.67
2019-01-08T01:41:06.974Z,5.68
2019-01-08T01:42:13.306Z,5.77
2019-01-08T01:43:19.750Z,5.81
2019-01-08T01:44:26.212Z,5.89
2019-01-08T01:45:32.558Z,5.72
2019-01-08T01:46:38.981Z,5.75
2019-01-08T01:47:45.320Z,5.84
2019-01-08T01:48:51.692Z,5.89
2019-01-08T01:49:58.391Z,5.80
2019-01-08T01:51:04.731Z,5.76
2019-01-08T01:52:11.089Z,5.83
2019-01-08T01:53:17.424Z,5.84
2019-01-08T01:54:23.732Z,5.76
2019-01-08T01:55:30.096Z,5.76
2019-01-08T01:56:36.434Z,5.82
2019-01-08T01:57:42.795Z,5.91
2019-01-08T01:58:49.147Z,5.78
2019-01-08T01:59:55.551Z,5.84
2019-01-08T02:01:01.954Z,5.76
2019-01-08T02:02:08.277Z,5.85
2019-01-08T02:03:14.566Z,5.93
2019-01-08T02:04:20.899Z,5.91
2019-01-08T02:05:27.235Z,5.89
2019-01-08T02:06:33.628Z,5.87
2019-01-08T02:07:40.856Z,5.88
2019-01-08T02:08:48.733Z,5.91
2019-01-08T02:09:55.551Z,5.98
2019-01-08T02:11:01.923Z,5.98
2019-01-08T02:12:08.302Z,5.94
2019-01-08T02:13:14.811Z,5.90
2019-01-08T02:14:21.438Z,5.98
2019-01-08T02:15:28.188Z,5.96
2019-01-08T02:16:34.532Z,5.91
2019-01-08T02:17:40.872Z,5.90
2019-01-08T02:18:47.176Z,5.86
2019-01-08T02:19:53.475Z,5.79
2019-01-08T02:20:59.800Z,5.86
2019-01-08T02:22:06.170Z,5.95
2019-01-08T02:23:12.274Z,5.94
2019-01-08T02:24:18.590Z,5.85
2019-01-08T02:25:24.914Z,5.94
2019-01-08T02:26:31.310Z,5.97
2019-01-08T02:27:37.599Z,5.82
2019-01-08T02:28:43.914Z,5.88
2019-01-08T02:29:51.262Z,5.95
2019-01-08T02:30:58.130Z,5.92
2019-01-08T02:32:04.480Z,5.91
2019-01-08T02:33:10.866Z,5.99
2019-01-08T02:34:17.174Z,5.91
2019-01-08T02:35:23.546Z,5.92
2019-01-08T02:36:29.893Z,6.06
2019-01-08T02:37:36.242Z,6.04
2019-01-08T02:38:42.544Z,5.85
2019-01-08T02:39:48.910Z,5.90
2019-01-08T02:40:55.275Z,5.99
2019-01-08T02:42:02.040Z,5.91
2019-01-08T02:43:08.320Z,5.96
2019-01-08T02:44:14.730Z,6.01
2019-01-08T02:45:21.043Z,5.95
2019-01-08T02:46:27.430Z,5.97
2019-01-08T02:47:33.720Z,5.97
2019-01-08T02:48:40.074Z,6.01
2019-01-08T02:49:46.399Z,5.99
2019-01-08T02:50:53.542Z,5.91
2019-01-08T02:52:00.101Z,5.94
2019-01-08T02:53:06.488Z,5.98
2019-01-08T02:54:12.805Z,6.01
2019-01-08T02:55:19.260Z,5.91
2019-01-08T02:56:25.658Z,5.74
2019-01-08T02:57:32.020Z,5.76
2019-01-08T02:58:38.349Z,5.79
2019-01-08T02:59:44.708Z,5.80
2019-01-08T03:00:51.037Z,5.87
2019-01-08T03:01:57.372Z,5.89
2019-01-08T03:03:03.667Z,5.89
2019-01-08T03:04:10.004Z,5.78
2019-01-08T03:05:16.368Z,5.73
2019-01-08T03:06:22.762Z,5.78
2019-01-08T03:07:29.140Z,5.76
2019-01-08T03:08:35.433Z,5.86
2019-01-08T03:09:41.784Z,5.93
2019-01-08T03:10:48.174Z,5.88
2019-01-08T03:11:55.558Z,5.82
2019-01-08T03:13:02.590Z,5.93
2019-01-08T03:14:08.956Z,5.97
2019-01-08T03:15:15.336Z,5.92
2019-01-08T03:16:21.746Z,5.84
2019-01-08T03:17:28.094Z,5.81
2019-01-08T03:18:34.462Z,5.81
2019-01-08T03:19:40.739Z,5.79
2019-01-08T03:20:47.098Z,5.87
2019-01-08T03:21:53.476Z,5.88
2019-01-08T03:23:00.803Z,5.82
2019-01-08T03:24:07.146Z,5.74
2019-01-08T03:25:13.772Z,5.63
2019-01-08T03:26:20.093Z,5.64
2019-01-08T03:27:26.431Z,5.65
2019-01-08T03:28:32.426Z,5.67
2019-01-08T03:29:38.775Z,5.61
2019-01-08T03:30:45.202Z,5.69
2019-01-08T03:31:51.532Z,5.61
2019-01-08T03:32:59.556Z,5.64
2019-01-08T03:34:06.377Z,5.73
2019-01-08T03:35:12.696Z,5.75
2019-01-08T03:36:19.091Z,5.75
2019-01-08T03:37:25.412Z,5.74
2019-01-08T03:38:31.725Z,5.68
2019-01-08T03:39:38.168Z,5.72
2019-01-08T03:40:44.679Z,5.71
2019-01-08T03:41:51.044Z,5.60
2019-01-08T03:42:58.757Z,5.66
2019-01-08T03:44:05.623Z,5.76
2019-01-08T03:45:12.093Z,5.77
2019-01-08T03:46:18.501Z,5.83
2019-01-08T03:47:24.853Z,5.68
2019-01-08T03:48:31.192Z,5.59
2019-01-08T03:49:37.582Z,5.61
2019-01-08T03:50:43.964Z,5.71
2019-01-08T03:51:50.302Z,5.74
2019-01-08T03:52:56.615Z,5.70
2019-01-08T03:54:03.812Z,5.53
2019-01-08T03:55:11.001Z,5.57
2019-01-08T03:56:17.339Z,5.60
2019-01-08T03:57:23.670Z,5.58
2019-01-08T03:58:30.062Z,5.55
2019-01-08T03:59:41.927Z,5.60
2019-01-08T04:00:42.845Z,5.63
2019-01-08T04:01:49.217Z,5.62
2019-01-08T04:02:55.542Z,5.61
2019-01-08T04:04:01.893Z,5.58
2019-01-08T04:05:07.921Z,5.64
2019-01-08T04:06:14.246Z,5.73
2019-01-08T04:07:20.626Z,5.65
2019-01-08T04:08:26.970Z,5.53
2019-01-08T04:09:33.275Z,5.60
2019-01-08T04:10:39.618Z,5.66
2019-01-08T04:11:45.636Z,5.56
2019-01-08T04:12:51.999Z,5.64
2019-01-08T04:13:59.260Z,5.71
2019-01-08T04:15:06.240Z,5.75
2019-01-08T04:16:13.375Z,5.72
2019-01-08T04:17:19.730Z,5.74
2019-01-08T04:18:26.177Z,5.66
2019-01-08T04:19:32.502Z,5.63
2019-01-08T04:20:38.780Z,5.65
2019-01-08T04:21:45.143Z,5.63
2019-01-08T04:22:51.510Z,5.68
2019-01-08T04:23:57.906Z,5.68
2019-01-08T04:25:03.872Z,5.73
2019-01-08T04:26:10.240Z,5.72
2019-01-08T04:27:16.550Z,5.74
2019-01-08T04:28:22.870Z,5.84
2019-01-08T04:29:29.167Z,5.81
2019-01-08T04:30:35.508Z,5.69
2019-01-08T04:31:41.879Z,5.68
2019-01-08T04:32:48.238Z,5.58
2019-01-08T04:33:54.648Z,5.58
2019-01-08T04:35:00.972Z,5.53
2019-01-08T04:36:08.083Z,5.47
2019-01-08T04:37:15.322Z,5.71
2019-01-08T04:38:21.813Z,5.73
2019-01-08T04:39:28.106Z,5.75
2019-01-08T04:40:34.484Z,5.63
2019-01-08T04:41:40.831Z,5.65
2019-01-08T04:42:47.170Z,5.66
2019-01-08T04:43:53.458Z,5.74
2019-01-08T04:44:59.837Z,5.76
2019-01-08T04:46:06.316Z,5.65
2019-01-08T04:47:12.781Z,5.73
2019-01-08T04:48:19.138Z,5.78
2019-01-08T04:49:25.489Z,5.75
2019-01-08T04:50:31.813Z,5.65
2019-01-08T04:51:38.200Z,5.61
2019-01-08T04:52:44.524Z,5.70
2019-01-08T04:53:50.876Z,5.46
2019-01-08T04:54:57.196Z,5.39
2019-01-08T04:56:03.548Z,5.50
2019-01-08T04:57:09.926Z,5.69
2019-01-08T04:58:16.233Z,5.76
2019-01-08T04:59:22.519Z,5.52
2019-01-08T05:00:28.805Z,5.59
2019-01-08T05:01:35.175Z,5.63
2019-01-08T05:02:41.534Z,5.64
2019-01-08T05:03:47.845Z,5.69
2019-01-08T05:04:54.165Z,5.61
2019-01-08T05:06:00.467Z,5.53
2019-01-08T05:07:06.841Z,5.53
2019-01-08T05:08:13.155Z,5.57
2019-01-08T05:09:19.491Z,5.73
2019-01-08T05:10:25.846Z,5.76
2019-01-08T05:11:32.205Z,5.84
2019-01-08T05:12:38.527Z,5.84
2019-01-08T05:13:45.074Z,5.86
2019-01-08T05:14:51.373Z,5.76
2019-01-08T05:15:57.693Z,5.72
2019-01-08T05:17:04.082Z,5.86
2019-01-08T05:18:10.423Z,5.94
2019-01-08T05:19:16.858Z,5.91
2019-01-08T05:20:24.229Z,5.79
2019-01-08T05:21:30.737Z,5.67
2019-01-08T05:22:37.190Z,5.57
2019-01-08T05:23:43.545Z,5.74
2019-01-08T05:24:49.861Z,5.59
2019-01-08T05:25:56.253Z,5.61
2019-01-08T05:27:02.726Z,5.80
2019-01-08T05:28:09.059Z,5.92
2019-01-08T05:29:15.421Z,5.93
2019-01-08T05:30:21.471Z,5.72
2019-01-08T05:31:27.867Z,5.67
2019-01-08T05:32:34.295Z,5.48
2019-01-08T05:33:40.659Z,5.57
2019-01-08T05:34:47.082Z,5.56
2019-01-08T05:35:53.457Z,5.62
2019-01-08T05:36:59.790Z,5.64
2019-01-08T05:38:06.165Z,5.67
2019-01-08T05:39:12.490Z,5.50
2019-01-08T05:40:20.081Z,5.31
2019-01-08T05:41:26.775Z,5.41
2019-01-08T05:42:33.150Z,5.41
2019-01-08T05:43:39.573Z,5.25
2019-01-08T05:44:46.069Z,5.28
2019-01-08T05:45:52.443Z,5.24
2019-01-08T05:46:58.776Z,5.29
2019-01-08T05:48:05.186Z,5.31
2019-01-08T05:49:11.627Z,5.52
2019-01-08T05:50:18.041Z,5.41
2019-01-08T05:51:24.470Z,5.48
2019-01-08T05:52:30.863Z,5.53
2019-01-08T05:53:37.226Z,5.39
2019-01-08T05:54:43.610Z,5.49
2019-01-08T05:55:49.932Z,5.57
2019-01-08T05:56:56.268Z,5.54
2019-01-08T05:58:02.639Z,5.50
2019-01-08T05:59:09.037Z,5.53
2019-01-08T06:00:16.473Z,5.46
2019-01-08T06:01:22.394Z,5.58
2019-01-08T06:02:28.804Z,5.54
2019-01-08T06:03:35.199Z,5.64
2019-01-08T06:04:41.564Z,5.68
2019-01-08T06:05:47.867Z,5.66
2019-01-08T06:06:54.238Z,5.65
2019-01-08T06:08:00.594Z,5.68
2019-01-08T06:09:06.617Z,5.76
2019-01-08T06:10:13.011Z,5.64
2019-01-08T06:11:19.377Z,5.64
2019-01-08T06:12:25.807Z,5.73
2019-01-08T06:13:32.229Z,5.81
2019-01-08T06:14:38.579Z,5.71
2019-01-08T06:15:45.010Z,5.64
2019-01-08T06:16:51.361Z,5.65
2019-01-08T06:17:57.778Z,5.64
2019-01-08T06:19:04.208Z,5.72
2019-01-08T06:20:10.572Z,5.86
2019-01-08T06:21:16.959Z,5.88
2019-01-08T06:22:23.372Z,5.85
2019-01-08T06:23:29.763Z,5.86
2019-01-08T06:24:36.144Z,5.78
2019-01-08T06:25:42.643Z,5.90
2019-01-08T06:26:48.932Z,5.80
2019-01-08T06:27:55.306Z,5.84
2019-01-08T06:29:01.642Z,5.83
2019-01-08T06:30:07.343Z,5.74
2019-01-08T06:31:13.723Z,5.69
2019-01-08T06:32:20.070Z,5.66
2019-01-08T06:33:26.434Z,5.83
2019-01-08T06:34:33.041Z,5.84
2019-01-08T06:35:39.504Z,5.74
2019-01-08T06:36:45.856Z,5.70
2019-01-08T06:37:52.214Z,5.66
2019-01-08T06:38:58.576Z,5.62
2019-01-08T06:40:04.326Z,5.64
2019-01-08T06:41:10.701Z,5.57
2019-01-08T06:42:17.076Z,5.70
2019-01-08T06:43:23.574Z,5.75
2019-01-08T06:44:29.904Z,5.63
2019-01-08T06:45:36.259Z,5.47
2019-01-08T06:46:43.830Z,5.49
2019-01-08T06:47:50.712Z,5.63
2019-01-08T06:48:57.146Z,5.61
2019-01-08T06:50:03.131Z,5.62
2019-01-08T06:51:09.432Z,5.55
2019-01-08T06:52:15.783Z,5.52
2019-01-08T06:53:22.167Z,5.50
2019-01-08T06:54:28.442Z,5.54
2019-01-08T06:55:34.726Z,5.52
2019-01-08T06:56:41.069Z,5.53
2019-01-08T06:57:47.454Z,5.61
2019-01-08T06:58:53.825Z,5.56
2019-01-08T07:00:00.195Z,5.62
2019-01-08T07:01:06.547Z,5.49
2019-01-08T07:02:12.887Z,5.48
2019-01-08T07:03:19.239Z,5.51
2019-01-08T07:04:25.677Z,5.50
2019-01-08T07:05:31.969Z,5.54
2019-01-08T07:06:38.271Z,5.56
2019-01-08T07:07:45.519Z,5.50
2019-01-08T07:08:52.337Z,5.43
2019-01-08T07:09:58.743Z,5.48
2019-01-08T07:11:04.668Z,5.56
2019-01-08T07:12:10.989Z,5.43
2019-01-08T07:13:17.312Z,5.45
2019-01-08T07:14:23.646Z,5.43
2019-01-08T07:15:29.988Z,5.46
2019-01-08T07:16:36.364Z,5.28
2019-01-08T07:17:42.733Z,5.30
2019-01-08T07:18:49.091Z,5.28
2019-01-08T07:19:55.554Z,5.30
2019-01-08T07:21:02.055Z,5.30
2019-01-08T07:22:08.474Z,5.33
2019-01-08T07:23:14.821Z,5.36
2019-01-08T07:24:21.212Z,5.44
2019-01-08T07:25:27.716Z,5.36
2019-01-08T07:26:34.096Z,5.30
2019-01-08T07:27:40.449Z,5.37
2019-01-08T07:28:47.688Z,5.27
2019-01-08T07:29:54.648Z,5.41
2019-01-08T07:31:01.235Z,5.37
2019-01-08T07:32:07.763Z,5.37
2019-01-08T07:33:14.166Z,5.45
2019-01-08T07:34:20.620Z,5.34
2019-01-08T07:35:27.002Z,5.47
2019-01-08T07:36:33.323Z,5.46
2019-01-08T07:37:39.697Z,5.51
2019-01-08T07:38:46.101Z,5.58
2019-01-08T07:39:52.107Z,5.52
2019-01-08T07:40:58.506Z,5.54
2019-01-08T07:42:04.862Z,5.49
2019-01-08T07:43:11.211Z,5.55
2019-01-08T07:44:17.646Z,5.62
2019-01-08T07:45:24.084Z,5.51
2019-01-08T07:46:30.504Z,5.55
2019-01-08T07:47:37.932Z,5.57
2019-01-08T07:48:44.387Z,5.51
2019-01-08T07:49:50.987Z,5.55
2019-01-08T07:50:57.386Z,5.53
2019-01-08T07:52:04.675Z,5.58
2019-01-08T07:53:11.134Z,5.66
2019-01-08T07:54:17.599Z,5.69
2019-01-08T07:55:23.973Z,5.74
2019-01-08T07:56:30.320Z,5.72
2019-01-08T07:57:36.660Z,5.74
2019-01-08T07:58:42.998Z,5.77
2019-01-08T07:59:49.373Z,5.81
2019-01-08T08:00:55.744Z,5.79
2019-01-08T08:02:02.110Z,5.74
2019-01-08T08:03:08.624Z,5.75
2019-01-08T08:04:15.098Z,5.73
2019-01-08T08:05:21.491Z,5.76
2019-01-08T08:06:27.859Z,5.75
2019-01-08T08:07:34.167Z,5.61
2019-01-08T08:08:40.494Z,5.69
2019-01-08T08:09:46.879Z,5.64
2019-01-08T08:10:53.252Z,5.68
2019-01-08T08:11:59.583Z,5.60
2019-01-08T08:13:06.816Z,5.61
2019-01-08T08:14:13.645Z,5.73
2019-01-08T08:15:19.986Z,5.81
2019-01-08T08:16:26.340Z,5.75
2019-01-08T08:17:32.710Z,5.85
2019-01-08T08:18:39.065Z,5.82
2019-01-08T08:19:47.003Z,5.90
2019-01-08T08:20:51.841Z,5.88
2019-01-08T08:21:58.187Z,5.79
2019-01-08T08:23:04.509Z,5.86
2019-01-08T08:24:10.877Z,5.86
2019-01-08T08:25:17.248Z,5.84
2019-01-08T08:26:23.627Z,5.75
2019-01-08T08:27:29.980Z,5.82
2019-01-08T08:28:36.298Z,5.77
2019-01-08T08:29:42.688Z,5.82
2019-01-08T08:30:49.042Z,5.79
2019-01-08T08:31:55.352Z,5.79
2019-01-08T08:33:01.786Z,5.73
2019-01-08T08:34:08.162Z,5.71
2019-01-08T08:35:15.194Z,5.66
2019-01-08T08:36:21.651Z,5.59
2019-01-08T08:37:28.078Z,5.64
2019-01-08T08:38:34.347Z,5.58
2019-01-08T08:39:40.666Z,5.68
2019-01-08T08:40:47.023Z,5.68
2019-01-08T08:41:53.343Z,5.61
2019-01-08T08:42:59.675Z,5.58
2019-01-08T08:44:06.034Z,5.59
2019-01-08T08:45:12.402Z,5.69
2019-01-08T08:46:18.765Z,5.75
2019-01-08T08:47:25.658Z,5.62
2019-01-08T08:48:31.970Z,5.61
2019-01-08T08:49:38.312Z,5.68
2019-01-08T08:50:44.644Z,5.64
2019-01-08T08:51:51.043Z,5.74
2019-01-08T08:52:57.376Z,5.70
2019-01-08T08:54:03.699Z,5.63
2019-01-08T08:55:10.046Z,5.53
2019-01-08T08:56:16.417Z,5.52
2019-01-08T08:57:22.726Z,5.51
2019-01-08T08:58:29.091Z,5.49
2019-01-08T08:59:35.431Z,5.52
2019-01-08T09:00:41.774Z,5.71
2019-01-08T09:01:48.103Z,5.70
2019-01-08T09:02:54.440Z,5.62
2019-01-08T09:04:00.752Z,5.66
2019-01-08T09:05:06.377Z,5.70
2019-01-08T09:06:12.729Z,5.63
2019-01-08T09:07:20.149Z,5.60
2019-01-08T09:08:25.422Z,5.72
2019-01-08T09:09:31.806Z,5.67
2019-01-08T09:10:37.784Z,5.59
2019-01-08T09:11:44.137Z,5.65
2019-01-08T09:12:50.558Z,5.54
2019-01-08T09:13:56.925Z,5.67
2019-01-08T09:15:03.283Z,5.78
2019-01-08T09:16:09.577Z,5.73
2019-01-08T09:17:15.883Z,5.77
2019-01-08T09:18:22.281Z,5.80
2019-01-08T09:19:28.605Z,5.77
2019-01-08T09:20:34.949Z,5.76
2019-01-08T09:21:41.260Z,5.84
2019-01-08T09:22:47.571Z,5.87
2019-01-08T09:23:53.885Z,5.81
2019-01-08T09:25:00.275Z,5.85
2019-01-08T09:26:06.765Z,5.90
2019-01-08T09:27:13.102Z,5.86
2019-01-08T09:28:19.449Z,5.84
2019-01-08T09:29:25.750Z,5.85
2019-01-08T09:30:32.102Z,5.84
2019-01-08T09:31:38.106Z,5.90
2019-01-08T09:32:44.396Z,5.92
2019-01-08T09:33:50.706Z,5.95
2019-01-08T09:34:57.026Z,5.85
2019-01-08T09:36:03.363Z,5.88
2019-01-08T09:37:09.674Z,5.91
2019-01-08T09:38:16.618Z,5.93
2019-01-08T09:39:23.495Z,5.87
2019-01-08T09:40:29.810Z,5.99
2019-01-08T09:41:35.840Z,6.08
2019-01-08T09:42:42.925Z,6.03
2019-01-08T09:43:48.545Z,6.04
2019-01-08T09:44:54.925Z,6.07
2019-01-08T09:46:01.254Z,6.08
2019-01-08T09:47:07.568Z,6.15
2019-01-08T09:48:13.889Z,6.09
2019-01-08T09:49:20.183Z,6.09
2019-01-08T09:50:26.560Z,6.11
2019-01-08T09:51:32.892Z,6.11
2019-01-08T09:52:39.222Z,6.15
2019-01-08T09:53:45.545Z,6.13
2019-01-08T09:54:51.858Z,6.16
2019-01-08T09:55:58.154Z,6.23
2019-01-08T09:57:04.463Z,6.20
2019-01-08T09:58:11.259Z,6.22
2019-01-08T09:59:17.938Z,6.27
2019-01-08T10:00:24.937Z,6.20
2019-01-08T10:01:31.246Z,6.27
2019-01-08T10:02:37.636Z,6.29
2019-01-08T10:03:43.935Z,6.32
2019-01-08T10:04:50.353Z,6.40
2019-01-08T10:05:56.699Z,6.34
2019-01-08T10:07:03.013Z,6.47
2019-01-08T10:08:09.347Z,6.52
2019-01-08T10:09:15.692Z,6.56
2019-01-08T10:10:22.144Z,6.42
2019-01-08T10:11:28.519Z,6.47
2019-01-08T10:12:34.819Z,6.49
2019-01-08T10:13:41.176Z,6.54
2019-01-08T10:14:47.469Z,6.69
2019-01-08T10:15:53.775Z,6.63
2019-01-08T10:17:00.072Z,6.73
2019-01-08T10:18:06.374Z,6.73
2019-01-08T10:19:12.872Z,6.78
2019-01-08T10:20:19.580Z,6.79
2019-01-08T10:21:26.320Z,6.77
2019-01-08T10:22:32.618Z,6.73
2019-01-08T10:23:38.911Z,6.74
2019-01-08T10:24:45.326Z,6.85
2019-01-08T10:25:51.697Z,6.90
2019-01-08T10:26:58.020Z,6.94
2019-01-08T10:28:04.358Z,6.92
2019-01-08T10:29:10.769Z,7.02
2019-01-08T10:30:17.089Z,7.00
2019-01-08T10:31:31.980Z,7.07
2019-01-08T10:32:29.864Z,7.06
2019-01-08T10:33:36.194Z,7.21
2019-01-08T10:34:42.514Z,7.26
2019-01-08T10:35:49.079Z,7.15
2019-01-08T10:36:55.595Z,7.19
2019-01-08T10:38:01.938Z,7.24
2019-01-08T10:39:07.534Z,7.14
2019-01-08T10:40:13.918Z,7.03
2019-01-08T10:41:20.292Z,7.14
2019-01-08T10:42:26.617Z,7.06
2019-01-08T10:43:33.034Z,6.91
2019-01-08T10:44:39.391Z,6.92
2019-01-08T10:45:45.716Z,6.90
2019-01-08T10:46:52.077Z,6.88
2019-01-08T10:47:58.428Z,6.88
2019-01-08T10:49:04.756Z,6.83
2019-01-08T10:50:10.793Z,6.87
2019-01-08T10:51:17.104Z,6.80
2019-01-08T10:52:23.434Z,6.74
2019-01-08T10:53:29.741Z,6.82
2019-01-08T10:54:36.081Z,6.85
2019-01-08T10:55:42.438Z,6.75
2019-01-08T10:56:48.761Z,6.67
2019-01-08T10:57:55.095Z,6.63
2019-01-08T10:59:07.530Z,6.60
2019-01-08T11:00:06.860Z,6.41
2019-01-08T11:01:13.209Z,6.36
2019-01-08T11:02:20.095Z,6.37
2019-01-08T11:03:26.446Z,6.38
2019-01-08T11:04:33.495Z,6.33
2019-01-08T11:05:39.837Z,6.26
2019-01-08T11:06:45.993Z,6.22
2019-01-08T11:07:52.420Z,6.20
2019-01-08T11:08:58.823Z,6.14
2019-01-08T11:10:04.486Z,6.22
2019-01-08T11:11:10.804Z,6.27
2019-01-08T11:12:17.166Z,6.14
2019-01-08T11:13:23.557Z,6.03
2019-01-08T11:14:29.960Z,6.03
2019-01-08T11:15:36.326Z,6.01
2019-01-08T11:16:42.702Z,5.94
2019-01-08T11:17:49.075Z,5.89
2019-01-08T11:18:55.435Z,5.94
2019-01-08T11:20:01.846Z,5.99
2019-01-08T11:21:08.319Z,6.00
2019-01-08T11:22:14.709Z,5.95
2019-01-08T11:23:21.066Z,5.94
2019-01-08T11:24:27.420Z,6.06
2019-01-08T11:25:33.831Z,5.98
2019-01-08T11:26:40.446Z,6.00
2019-01-08T11:27:46.841Z,6.10
2019-01-08T11:28:53.163Z,6.04
2019-01-08T11:29:59.483Z,6.02
2019-01-08T11:31:05.925Z,5.96
2019-01-08T11:32:12.329Z,6.01
2019-01-08T11:33:18.709Z,6.03
2019-01-08T11:34:25.091Z,6.09
2019-01-08T11:35:31.393Z,6.15
2019-01-08T11:36:37.770Z,6.16
2019-01-08T11:37:44.105Z,6.15
2019-01-08T11:38:50.453Z,6.23
2019-01-08T11:39:56.781Z,6.22
2019-01-08T11:41:03.240Z,6.25
2019-01-08T11:42:09.611Z,6.26
2019-01-08T11:43:15.962Z,6.31
2019-01-08T11:44:24.320Z,6.34
2019-01-08T11:45:28.850Z,6.34
2019-01-08T11:46:35.239Z,6.32
2019-01-08T11:47:42.336Z,6.30
2019-01-08T11:48:49.281Z,6.30
2019-01-08T11:49:55.601Z,6.33
2019-01-08T11:51:01.960Z,6.30
2019-01-08T11:52:08.314Z,6.33
2019-01-08T11:53:14.647Z,6.39
2019-01-08T11:54:20.960Z,6.38
2019-01-08T11:55:27.297Z,6.31
2019-01-08T11:56:33.666Z,6.38
2019-01-08T11:57:40.007Z,6.37
2019-01-08T11:58:46.366Z,6.35
2019-01-08T11:59:52.723Z,6.30
2019-01-08T12:00:59.103Z,6.28
2019-01-08T12:02:05.226Z,6.31
2019-01-08T12:03:11.602Z,6.40
2019-01-08T12:04:17.947Z,6.35
2019-01-08T12:05:24.287Z,6.31
2019-01-08T12:06:30.584Z,6.40
2019-01-08T12:07:36.927Z,6.47
2019-01-08T12:08:43.918Z,6.42
2019-01-08T12:09:50.220Z,6.49
2019-01-08T12:10:56.535Z,6.41
2019-01-08T12:12:02.882Z,6.42
2019-01-08T12:13:09.220Z,6.43
2019-01-08T12:14:15.574Z,6.39
2019-01-08T12:15:21.892Z,6.46
2019-01-08T12:16:28.168Z,6.46
2019-01-08T12:17:34.488Z,6.49
2019-01-08T12:18:40.833Z,6.51
2019-01-08T12:19:47.117Z,6.53
2019-01-08T12:20:53.434Z,6.48
2019-01-08T12:21:59.740Z,6.48
2019-01-08T12:23:06.097Z,6.47
2019-01-08T12:24:12.404Z,6.56
2019-01-08T12:25:18.727Z,6.50
2019-01-08T12:26:25.067Z,6.57
2019-01-08T12:27:31.452Z,6.50
2019-01-08T12:28:37.829Z,6.49
2019-01-08T12:29:44.809Z,6.41
2019-01-08T12:30:51.757Z,6.42
2019-01-08T12:32:05.656Z,6.46
2019-01-08T12:33:04.532Z,6.41
2019-01-08T12:34:10.834Z,6.35
2019-01-08T12:35:17.155Z,6.27
2019-01-08T12:36:24.337Z,6.25
2019-01-08T12:37:30.734Z,6.23
2019-01-08T12:38:37.074Z,6.20
2019-01-08T12:39:43.381Z,6.36
2019-01-08T12:40:49.739Z,6.40
2019-01-08T12:41:56.110Z,6.38
2019-01-08T12:43:02.428Z,6.47
2019-01-08T12:44:08.822Z,6.38
2019-01-08T12:45:15.238Z,6.39
2019-01-08T12:46:21.532Z,6.42
2019-01-08T12:47:27.888Z,6.26
2019-01-08T12:48:34.228Z,6.39
2019-01-08T12:49:40.547Z,6.32
2019-01-08T12:50:47.493Z,6.22
2019-01-08T12:51:54.008Z,6.24
2019-01-08T12:53:00.332Z,6.20
2019-01-08T12:54:06.640Z,6.25
2019-01-08T12:55:13.164Z,6.28
2019-01-08T12:56:19.301Z,6.36
2019-01-08T12:57:25.631Z,6.34
2019-01-08T12:58:31.933Z,6.38
2019-01-08T12:59:38.220Z,6.32
2019-01-08T13:00:44.568Z,6.38
2019-01-08T13:01:50.914Z,6.36
2019-01-08T13:02:57.259Z,6.36
2019-01-08T13:04:03.605Z,6.44
2019-01-08T13:05:09.643Z,6.45
2019-01-08T13:06:15.972Z,6.50
2019-01-08T13:07:22.372Z,6.40
2019-01-08T13:08:28.676Z,6.49
2019-01-08T13:09:35.052Z,6.44
2019-01-08T13:10:41.430Z,6.48
2019-01-08T13:11:47.705Z,6.43
2019-01-08T13:12:54.201Z,6.39
2019-01-08T13:14:00.491Z,6.37
2019-01-08T13:15:06.130Z,6.29
2019-01-08T13:16:12.479Z,6.27
2019-01-08T13:17:18.855Z,6.26
2019-01-08T13:18:25.182Z,6.27
2019-01-08T13:19:31.568Z,6.12
2019-01-08T13:20:37.920Z,6.20
2019-01-08T13:21:44.282Z,6.13
2019-01-08T13:22:50.743Z,6.21
2019-01-08T13:23:57.123Z,6.21
2019-01-08T13:25:03.493Z,6.25
2019-01-08T13:26:10.639Z,6.22
2019-01-08T13:27:17.082Z,6.15
2019-01-08T13:28:23.619Z,6.21
2019-01-08T13:29:29.827Z,6.24
2019-01-08T13:30:35.816Z,6.16
2019-01-08T13:31:42.217Z,6.11
2019-01-08T13:32:47.859Z,6.21
2019-01-08T13:33:54.984Z,6.22
2019-01-08T13:35:01.922Z,6.13
2019-01-08T13:36:07.954Z,6.15
2019-01-08T13:37:14.319Z,6.11
2019-01-08T13:38:20.699Z,5.99
2019-01-08T13:39:27.258Z,6.07
2019-01-08T13:40:33.588Z,6.09
2019-01-08T13:41:39.985Z,6.13
2019-01-08T13:42:46.332Z,6.26
2019-01-08T13:43:52.676Z,6.23
2019-01-08T13:44:59.093Z,6.20
2019-01-08T13:46:05.455Z,6.26
2019-01-08T13:47:12.622Z,6.11
2019-01-08T13:48:19.007Z,6.22
2019-01-08T13:49:25.453Z,6.21
2019-01-08T13:50:31.843Z,6.25
2019-01-08T13:51:38.235Z,6.27
2019-01-08T13:52:44.647Z,6.14
2019-01-08T13:53:50.991Z,6.10
2019-01-08T13:54:58.244Z,6.01
2019-01-08T13:56:05.374Z,6.07
2019-01-08T13:57:11.857Z,6.10
2019-01-08T13:58:18.241Z,6.07
2019-01-08T13:59:24.834Z,6.15
2019-01-08T14:00:31.703Z,6.18
2019-01-08T14:01:37.355Z,6.16
2019-01-08T14:02:43.832Z,6.24
2019-01-08T14:03:50.337Z,6.24
2019-01-08T14:04:56.715Z,6.24
2019-01-08T14:06:03.041Z,6.16
2019-01-08T14:07:10.525Z,6.24
2019-01-08T14:08:16.887Z,6.12
2019-01-08T14:09:23.286Z,6.09
2019-01-08T14:10:29.666Z,6.16
2019-01-08T14:11:35.970Z,6.13
2019-01-08T14:12:42.324Z,6.13
2019-01-08T14:13:48.674Z,6.17
2019-01-08T14:14:55.154Z,6.12
2019-01-08T14:16:01.488Z,6.19
2019-01-08T14:17:07.989Z,6.14
2019-01-08T14:18:14.399Z,6.05
2019-01-08T14:19:20.731Z,6.15
2019-01-08T14:20:27.115Z,6.07
2019-01-08T14:21:33.439Z,6.03
2019-01-08T14:22:39.760Z,6.05
2019-01-08T14:23:46.145Z,6.09
2019-01-08T14:24:52.509Z,6.24
2019-01-08T14:25:58.799Z,6.23
2019-01-08T14:27:11.763Z,6.26
2019-01-08T14:28:11.577Z,6.37
2019-01-08T14:29:17.950Z,6.34
2019-01-08T14:30:24.349Z,6.30
2019-01-08T14:31:30.334Z,6.23
2019-01-08T14:32:40.712Z,6.30
2019-01-08T14:33:43.065Z,6.21
2019-01-08T14:34:49.421Z,6.21
2019-01-08T14:35:55.762Z,6.18
2019-01-08T14:37:02.099Z,6.21
2019-01-08T14:38:08.684Z,6.23
2019-01-08T14:39:14.991Z,6.22
2019-01-08T14:40:21.322Z,6.20
2019-01-08T14:41:27.636Z,6.27
2019-01-08T14:42:33.966Z,6.27
2019-01-08T14:43:40.341Z,6.37